Fairview, Michigan
Current Conditions -  °F | °C
As of 1:54 PM on Wednesday 26 Nov 2014 (Local Time) from KAPN Reporting Station
Overcast Overcast  
Wind Chill: 19°   Ceiling: 3500
Heat Index: 28°   Visibility: 10mi
Dew Point: 23°   Wind: 9mph
Humidity: 81%   Direction: 270°W
Pressure: 30.15"   Gusts: NA
Location:  44.73°N, 84.05°W
Report Text: KAPN 261854Z AUTO 27008KT 10SM OVC035 M02/M05 A3015 RMK AO2 SLP219 T10221050
Loading
Personal Weather Stations






























Interactive Weather Map New forecast layout! Learn more

10-Day Weather Forecast

Advertisements
Track Severe Weather on mobile